LFRO 181700Z AUTO 25009KT 9999 FEW034 OVC045 20/15 Q1017

ElémentsDécodage
LFRO Station météo située sur l'aérodrome de LANNION
181700Z émis le 18 du mois à 17h00 UTC
AUTO Bulletin édité par un automate
25009KT vent du 250°, 09 noeuds
9999 visibilité horizontale supérieure à 10 Km
FEW034 nuages rares (1/8 à 2/8) à 3400 pieds
OVC045 couverture nuageuse totale (8/8) à 4500 pieds
20/15 température 20°C, point de rosée 15°C
 soit une humidité relative de 73%
Q1017 la pression au niveau de la mer (QNH) est de 1017 hPa